sensor_id;sensor_type;location;lat;lon;timestamp;P1;durP1;ratioP1;P2;durP2;ratioP2
25984;SDS011;40000;53.848;10.658;2023-01-04T00:00:34;1999.90;;;999.90;;
25984;SDS011;40000;53.848;10.658;2023-01-04T00:05:35;1999.90;;;999.90;;
25984;SDS011;40000;53.848;10.658;2023-01-04T00:10:37;1999.90;;;999.90;;
25984;SDS011;40000;53.848;10.658;2023-01-04T00:15:38;1999.90;;;999.90;;
25984;SDS011;40000;53.848;10.658;2023-01-04T00:20:39;1999.90;;;999.90;;
25984;SDS011;40000;53.848;10.658;2023-01-04T00:25:40;1999.90;;;999.90;;
25984;SDS011;40000;53.848;10.658;2023-01-04T00:30:41;1999.90;;;999.90;;
25984;SDS011;40000;53.848;10.658;2023-01-04T00:35:42;1999.90;;;999.90;;
25984;SDS011;40000;53.848;10.658;2023-01-04T00:40:44;1999.90;;;999.90;;
25984;SDS011;40000;53.848;10.658;2023-01-04T00:45:45;1999.90;;;999.90;;
25984;SDS011;40000;53.848;10.658;2023-01-04T00:50:46;1999.90;;;999.90;;
25984;SDS011;40000;53.848;10.658;2023-01-04T00:55:48;1999.90;;;999.90;;
25984;SDS011;40000;53.848;10.658;2023-01-04T01:00:49;1999.90;;;999.90;;
25984;SDS011;40000;53.848;10.658;2023-01-04T01:05:50;1999.90;;;999.90;;
25984;SDS011;40000;53.848;10.658;2023-01-04T01:10:53;1999.90;;;999.90;;
25984;SDS011;40000;53.848;10.658;2023-01-04T01:15:54;1999.90;;;999.90;;
25984;SDS011;40000;53.848;10.658;2023-01-04T01:20:55;1999.90;;;999.90;;
25984;SDS011;40000;53.848;10.658;2023-01-04T01:26:00;1999.90;;;999.90;;
25984;SDS011;40000;53.848;10.658;2023-01-04T01:31:06;1999.90;;;999.90;;
25984;SDS011;40000;53.848;10.658;2023-01-04T01:36:13;1999.90;;;999.90;;
25984;SDS011;40000;53.848;10.658;2023-01-04T01:41:17;1999.90;;;999.90;;
25984;SDS011;40000;53.848;10.658;2023-01-04T01:51:33;1999.90;;;999.90;;
25984;SDS011;40000;53.848;10.658;2023-01-04T01:56:35;1999.90;;;999.90;;
25984;SDS011;40000;53.848;10.658;2023-01-04T02:01:38;1999.90;;;999.90;;
25984;SDS011;40000;53.848;10.658;2023-01-04T02:06:45;1999.90;;;999.90;;
25984;SDS011;40000;53.848;10.658;2023-01-04T02:11:48;1999.90;;;999.90;;
25984;SDS011;40000;53.848;10.658;2023-01-04T02:33:10;1999.90;;;999.90;;
25984;SDS011;40000;53.848;10.658;2023-01-04T02:38:22;1999.90;;;999.90;;
25984;SDS011;40000;53.848;10.658;2023-01-04T02:48:59;1999.90;;;999.90;;
25984;SDS011;40000;53.848;10.658;2023-01-04T02:54:21;1999.90;;;999.90;;
25984;SDS011;40000;53.848;10.658;2023-01-04T03:15:52;1999.90;;;999.90;;
25984;SDS011;40000;53.848;10.658;2023-01-04T03:20:55;1999.90;;;999.90;;
25984;SDS011;40000;53.848;10.658;2023-01-04T03:26:00;1999.90;;;999.90;;
25984;SDS011;40000;53.848;10.658;2023-01-04T03:31:46;1999.90;;;999.90;;
25984;SDS011;40000;53.848;10.658;2023-01-04T03:42:19;1999.90;;;999.90;;
25984;SDS011;40000;53.848;10.658;2023-01-04T03:53:19;1999.90;;;999.90;;
25984;SDS011;40000;53.848;10.658;2023-01-04T03:58:20;1999.90;;;999.90;;
25984;SDS011;40000;53.848;10.658;2023-01-04T04:03:22;1999.90;;;999.90;;
25984;SDS011;40000;53.848;10.658;2023-01-04T04:08:23;1999.90;;;999.90;;
25984;SDS011;40000;53.848;10.658;2023-01-04T04:13:30;1999.90;;;999.90;;
25984;SDS011;40000;53.848;10.658;2023-01-04T04:18:31;1999.90;;;999.90;;
25984;SDS011;40000;53.848;10.658;2023-01-04T04:23:32;1999.90;;;999.90;;
25984;SDS011;40000;53.848;10.658;2023-01-04T04:28:33;1999.90;;;999.90;;
25984;SDS011;40000;53.848;10.658;2023-01-04T04:33:34;1999.90;;;999.90;;
25984;SDS011;40000;53.848;10.658;2023-01-04T04:38:36;1999.90;;;999.90;;
25984;SDS011;40000;53.848;10.658;2023-01-04T04:43:37;1999.90;;;999.90;;
25984;SDS011;40000;53.848;10.658;2023-01-04T04:48:38;1999.90;;;999.90;;
25984;SDS011;40000;53.848;10.658;2023-01-04T04:53:39;1999.90;;;999.90;;
25984;SDS011;40000;53.848;10.658;2023-01-04T04:58:41;1999.90;;;999.90;;
25984;SDS011;40000;53.848;10.658;2023-01-04T05:03:42;1999.90;;;999.90;;
25984;SDS011;40000;53.848;10.658;2023-01-04T05:08:43;1999.90;;;999.90;;
25984;SDS011;40000;53.848;10.658;2023-01-04T05:13:44;1999.90;;;999.90;;
25984;SDS011;40000;53.848;10.658;2023-01-04T05:18:45;1999.90;;;999.90;;
25984;SDS011;40000;53.848;10.658;2023-01-04T05:23:46;1999.90;;;999.90;;
25984;SDS011;40000;53.848;10.658;2023-01-04T05:28:48;1999.90;;;999.90;;
25984;SDS011;40000;53.848;10.658;2023-01-04T05:33:49;1999.90;;;999.90;;
25984;SDS011;40000;53.848;10.658;2023-01-04T05:38:50;1999.90;;;999.90;;
25984;SDS011;40000;53.848;10.658;2023-01-04T05:43:52;1999.90;;;999.90;;
25984;SDS011;40000;53.848;10.658;2023-01-04T05:48:53;1999.90;;;999.90;;
25984;SDS011;40000;53.848;10.658;2023-01-04T05:53:54;1999.90;;;999.90;;
25984;SDS011;40000;53.848;10.658;2023-01-04T05:58:55;1999.90;;;999.90;;
25984;SDS011;40000;53.848;10.658;2023-01-04T06:03:56;1999.90;;;999.90;;
25984;SDS011;40000;53.848;10.658;2023-01-04T06:08:57;1999.90;;;999.90;;
25984;SDS011;40000;53.848;10.658;2023-01-04T06:13:59;1999.90;;;999.90;;
25984;SDS011;40000;53.848;10.658;2023-01-04T06:19:00;1999.90;;;999.90;;
25984;SDS011;40000;53.848;10.658;2023-01-04T06:24:02;1999.90;;;999.90;;
25984;SDS011;40000;53.848;10.658;2023-01-04T06:29:03;1999.90;;;999.90;;
25984;SDS011;40000;53.848;10.658;2023-01-04T06:34:04;1999.90;;;999.90;;
25984;SDS011;40000;53.848;10.658;2023-01-04T06:39:06;1999.90;;;999.90;;
25984;SDS011;40000;53.848;10.658;2023-01-04T06:44:07;1999.90;;;999.90;;
25984;SDS011;40000;53.848;10.658;2023-01-04T06:49:08;1999.90;;;999.90;;
25984;SDS011;40000;53.848;10.658;2023-01-04T06:54:09;1999.90;;;999.90;;
25984;SDS011;40000;53.848;10.658;2023-01-04T06:59:11;1999.90;;;999.90;;
25984;SDS011;40000;53.848;10.658;2023-01-04T07:04:12;1999.90;;;999.90;;
25984;SDS011;40000;53.848;10.658;2023-01-04T07:09:13;1999.90;;;999.90;;
25984;SDS011;40000;53.848;10.658;2023-01-04T07:14:14;1999.90;;;999.90;;
25984;SDS011;40000;53.848;10.658;2023-01-04T07:19:16;1999.90;;;999.90;;
25984;SDS011;40000;53.848;10.658;2023-01-04T07:24:17;1999.90;;;999.90;;
25984;SDS011;40000;53.848;10.658;2023-01-04T07:29:18;1999.90;;;999.90;;
25984;SDS011;40000;53.848;10.658;2023-01-04T07:34:22;1999.90;;;999.90;;
25984;SDS011;40000;53.848;10.658;2023-01-04T07:39:25;1999.90;;;999.90;;
25984;SDS011;40000;53.848;10.658;2023-01-04T07:44:26;1999.90;;;999.90;;
25984;SDS011;40000;53.848;10.658;2023-01-04T07:49:27;1999.90;;;999.90;;
25984;SDS011;40000;53.848;10.658;2023-01-04T07:54:29;1999.90;;;999.90;;
25984;SDS011;40000;53.848;10.658;2023-01-04T07:59:30;1999.90;;;999.90;;
25984;SDS011;40000;53.848;10.658;2023-01-04T08:04:32;1999.90;;;999.90;;
25984;SDS011;40000;53.848;10.658;2023-01-04T08:09:33;1999.90;;;999.90;;
25984;SDS011;40000;53.848;10.658;2023-01-04T08:14:35;1999.90;;;999.90;;
25984;SDS011;40000;53.848;10.658;2023-01-04T08:19:36;1999.90;;;999.90;;
25984;SDS011;40000;53.848;10.658;2023-01-04T08:24:38;1999.90;;;999.90;;
25984;SDS011;40000;53.848;10.658;2023-01-04T08:29:40;1999.90;;;999.90;;
25984;SDS011;40000;53.848;10.658;2023-01-04T08:34:41;1999.90;;;999.90;;
25984;SDS011;40000;53.848;10.658;2023-01-04T08:39:42;1999.90;;;999.90;;
25984;SDS011;40000;53.848;10.658;2023-01-04T08:44:44;1999.90;;;999.90;;
25984;SDS011;40000;53.848;10.658;2023-01-04T08:49:45;1999.90;;;999.90;;
25984;SDS011;40000;53.848;10.658;2023-01-04T08:54:47;1999.90;;;999.90;;
25984;SDS011;40000;53.848;10.658;2023-01-04T08:59:49;1999.90;;;999.90;;
25984;SDS011;40000;53.848;10.658;2023-01-04T09:04:51;1999.90;;;999.90;;
25984;SDS011;40000;53.848;10.658;2023-01-04T09:09:58;1999.90;;;999.90;;
25984;SDS011;40000;53.848;10.658;2023-01-04T09:15:01;1999.90;;;999.90;;
25984;SDS011;40000;53.848;10.658;2023-01-04T09:20:03;1999.90;;;999.90;;
25984;SDS011;40000;53.848;10.658;2023-01-04T09:25:05;1999.90;;;999.90;;
25984;SDS011;40000;53.848;10.658;2023-01-04T09:30:07;1999.90;;;999.90;;
25984;SDS011;40000;53.848;10.658;2023-01-04T09:35:09;1999.90;;;999.90;;
25984;SDS011;40000;53.848;10.658;2023-01-04T09:40:18;1999.90;;;999.90;;
25984;SDS011;40000;53.848;10.658;2023-01-04T09:45:24;1999.90;;;999.90;;
25984;SDS011;40000;53.848;10.658;2023-01-04T09:50:27;1999.90;;;999.90;;
25984;SDS011;40000;53.848;10.658;2023-01-04T09:55:38;1999.90;;;999.90;;
25984;SDS011;40000;53.848;10.658;2023-01-04T10:00:48;1999.90;;;999.90;;
25984;SDS011;40000;53.848;10.658;2023-01-04T10:06:00;1999.90;;;999.90;;
25984;SDS011;40000;53.848;10.658;2023-01-04T10:11:09;1999.90;;;999.90;;
25984;SDS011;40000;53.848;10.658;2023-01-04T10:16:39;1999.90;;;999.90;;
25984;SDS011;40000;53.848;10.658;2023-01-04T10:22:24;1999.90;;;999.90;;
25984;SDS011;40000;53.848;10.658;2023-01-04T10:27:55;1999.90;;;999.90;;
25984;SDS011;40000;53.848;10.658;2023-01-04T10:38:16;1999.90;;;999.90;;
25984;SDS011;40000;53.848;10.658;2023-01-04T10:43:46;1999.90;;;999.90;;
25984;SDS011;40000;53.848;10.658;2023-01-04T10:48:50;1999.90;;;999.90;;
25984;SDS011;40000;53.848;10.658;2023-01-04T10:54:06;1999.90;;;999.90;;
25984;SDS011;40000;53.848;10.658;2023-01-04T11:04:39;1999.90;;;999.90;;
25984;SDS011;40000;53.848;10.658;2023-01-04T11:10:00;1999.90;;;999.90;;
25984;SDS011;40000;53.848;10.658;2023-01-04T11:15:06;1999.90;;;999.90;;
25984;SDS011;40000;53.848;10.658;2023-01-04T11:20:08;1999.90;;;999.90;;
25984;SDS011;40000;53.848;10.658;2023-01-04T11:25:11;1999.90;;;999.90;;
25984;SDS011;40000;53.848;10.658;2023-01-04T11:30:16;1999.90;;;999.90;;
25984;SDS011;40000;53.848;10.658;2023-01-04T11:40:36;1999.90;;;999.90;;
25984;SDS011;40000;53.848;10.658;2023-01-04T11:45:38;1999.90;;;999.90;;
25984;SDS011;40000;53.848;10.658;2023-01-04T11:50:40;1999.90;;;999.90;;
25984;SDS011;40000;53.848;10.658;2023-01-04T11:55:42;1999.90;;;999.90;;
25984;SDS011;40000;53.848;10.658;2023-01-04T12:00:50;1999.90;;;999.90;;
25984;SDS011;40000;53.848;10.658;2023-01-04T12:05:53;1999.90;;;999.90;;
25984;SDS011;40000;53.848;10.658;2023-01-04T12:10:55;1999.90;;;999.90;;
25984;SDS011;40000;53.848;10.658;2023-01-04T12:16:07;1999.90;;;999.90;;
25984;SDS011;40000;53.848;10.658;2023-01-04T12:21:23;1999.90;;;999.90;;
25984;SDS011;40000;53.848;10.658;2023-01-04T12:26:25;1999.90;;;999.90;;
25984;SDS011;40000;53.848;10.658;2023-01-04T12:31:27;1999.90;;;999.90;;
25984;SDS011;40000;53.848;10.658;2023-01-04T12:46:39;1999.90;;;999.90;;
25984;SDS011;40000;53.848;10.658;2023-01-04T13:02:18;1999.90;;;999.90;;
25984;SDS011;40000;53.848;10.658;2023-01-04T13:07:32;1999.90;;;999.90;;
25984;SDS011;40000;53.848;10.658;2023-01-04T13:12:45;1999.90;;;999.90;;
25984;SDS011;40000;53.848;10.658;2023-01-04T13:18:44;1999.90;;;999.90;;
25984;SDS011;40000;53.848;10.658;2023-01-04T13:23:44;1999.90;;;999.90;;
25984;SDS011;40000;53.848;10.658;2023-01-04T13:28:48;1999.90;;;999.90;;
25984;SDS011;40000;53.848;10.658;2023-01-04T13:33:49;1999.90;;;999.90;;
25984;SDS011;40000;53.848;10.658;2023-01-04T13:38:50;1999.90;;;999.90;;
25984;SDS011;40000;53.848;10.658;2023-01-04T13:44:10;1999.90;;;999.90;;
25984;SDS011;40000;53.848;10.658;2023-01-04T13:49:36;1999.90;;;999.90;;
25984;SDS011;40000;53.848;10.658;2023-01-04T13:54:38;1999.90;;;999.90;;
25984;SDS011;40000;53.848;10.658;2023-01-04T13:59:39;1999.90;;;999.90;;
25984;SDS011;40000;53.848;10.658;2023-01-04T14:04:40;1999.90;;;999.90;;
25984;SDS011;40000;53.848;10.658;2023-01-04T14:09:46;1999.90;;;999.90;;
25984;SDS011;40000;53.848;10.658;2023-01-04T14:14:56;1999.90;;;999.90;;
25984;SDS011;40000;53.848;10.658;2023-01-04T14:20:00;1999.90;;;999.90;;
25984;SDS011;40000;53.848;10.658;2023-01-04T14:30:28;1999.90;;;999.90;;
25984;SDS011;40000;53.848;10.658;2023-01-04T14:35:29;1999.90;;;999.90;;
25984;SDS011;40000;53.848;10.658;2023-01-04T14:40:37;1999.90;;;999.90;;
25984;SDS011;40000;53.848;10.658;2023-01-04T14:45:39;1999.90;;;999.90;;
25984;SDS011;40000;53.848;10.658;2023-01-04T14:50:40;1999.90;;;999.90;;
25984;SDS011;40000;53.848;10.658;2023-01-04T14:55:41;1999.90;;;999.90;;
25984;SDS011;40000;53.848;10.658;2023-01-04T15:00:42;1999.90;;;999.90;;
25984;SDS011;40000;53.848;10.658;2023-01-04T15:05:44;1999.90;;;999.90;;
25984;SDS011;40000;53.848;10.658;2023-01-04T15:10:45;1999.90;;;999.90;;
25984;SDS011;40000;53.848;10.658;2023-01-04T15:15:47;1999.90;;;999.90;;
25984;SDS011;40000;53.848;10.658;2023-01-04T15:20:48;1999.90;;;999.90;;
25984;SDS011;40000;53.848;10.658;2023-01-04T15:25:50;1999.90;;;999.90;;
25984;SDS011;40000;53.848;10.658;2023-01-04T15:30:51;1999.90;;;999.90;;
25984;SDS011;40000;53.848;10.658;2023-01-04T15:35:59;1999.90;;;999.90;;
25984;SDS011;40000;53.848;10.658;2023-01-04T15:41:03;1999.90;;;999.90;;
25984;SDS011;40000;53.848;10.658;2023-01-04T15:46:06;1999.90;;;999.90;;
25984;SDS011;40000;53.848;10.658;2023-01-04T15:51:08;1999.90;;;999.90;;
25984;SDS011;40000;53.848;10.658;2023-01-04T15:56:09;1999.90;;;999.90;;
25984;SDS011;40000;53.848;10.658;2023-01-04T16:01:12;1999.90;;;999.90;;
25984;SDS011;40000;53.848;10.658;2023-01-04T16:06:15;1999.90;;;999.90;;
25984;SDS011;40000;53.848;10.658;2023-01-04T16:11:18;1999.90;;;999.90;;
25984;SDS011;40000;53.848;10.658;2023-01-04T16:16:22;1999.90;;;999.90;;
25984;SDS011;40000;53.848;10.658;2023-01-04T16:21:26;1999.90;;;999.90;;
25984;SDS011;40000;53.848;10.658;2023-01-04T16:26:28;1999.90;;;999.90;;
25984;SDS011;40000;53.848;10.658;2023-01-04T16:31:33;1999.90;;;999.90;;
25984;SDS011;40000;53.848;10.658;2023-01-04T16:36:35;1999.90;;;999.90;;
25984;SDS011;40000;53.848;10.658;2023-01-04T16:41:36;1999.90;;;999.90;;
25984;SDS011;40000;53.848;10.658;2023-01-04T16:46:37;1999.90;;;999.90;;
25984;SDS011;40000;53.848;10.658;2023-01-04T16:51:40;1999.90;;;999.90;;
25984;SDS011;40000;53.848;10.658;2023-01-04T16:56:44;1999.90;;;999.90;;
25984;SDS011;40000;53.848;10.658;2023-01-04T17:20:50;11.53;;;4.27;;
25984;SDS011;40000;53.848;10.658;2023-01-04T17:25:53;11.02;;;3.63;;
25984;SDS011;40000;53.848;10.658;2023-01-04T17:30:58;6.85;;;2.67;;
25984;SDS011;40000;53.848;10.658;2023-01-04T17:36:05;4.15;;;1.90;;
25984;SDS011;40000;53.848;10.658;2023-01-04T18:03:06;5.13;;;1.48;;
25984;SDS011;40000;53.848;10.658;2023-01-04T18:13:07;5.03;;;1.07;;
25984;SDS011;40000;53.848;10.658;2023-01-04T18:18:07;5.38;;;1.00;;
25984;SDS011;40000;53.848;10.658;2023-01-04T18:23:08;2.50;;;0.83;;
25984;SDS011;40000;53.848;10.658;2023-01-04T18:28:08;5.63;;;1.33;;
25984;SDS011;40000;53.848;10.658;2023-01-04T18:33:08;10.40;;;3.00;;
25984;SDS011;40000;53.848;10.658;2023-01-04T18:38:09;13.30;;;4.10;;
25984;SDS011;40000;53.848;10.658;2023-01-04T18:43:09;13.88;;;3.97;;
25984;SDS011;40000;53.848;10.658;2023-01-04T18:48:09;11.10;;;3.38;;
25984;SDS011;40000;53.848;10.658;2023-01-04T19:06:21;8.38;;;4.00;;
25984;SDS011;40000;53.848;10.658;2023-01-04T19:11:23;4.57;;;2.78;;
25984;SDS011;40000;53.848;10.658;2023-01-04T19:16:24;5.65;;;2.88;;
25984;SDS011;40000;53.848;10.658;2023-01-04T19:21:28;5.65;;;1.67;;
25984;SDS011;40000;53.848;10.658;2023-01-04T19:26:29;4.28;;;1.85;;
25984;SDS011;40000;53.848;10.658;2023-01-04T19:31:33;4.07;;;1.20;;
25984;SDS011;40000;53.848;10.658;2023-01-04T19:36:36;3.42;;;1.50;;
25984;SDS011;40000;53.848;10.658;2023-01-04T19:41:37;3.25;;;1.85;;
25984;SDS011;40000;53.848;10.658;2023-01-04T19:51:39;2.88;;;1.30;;
25984;SDS011;40000;53.848;10.658;2023-01-04T19:56:43;1.30;;;1.05;;
25984;SDS011;40000;53.848;10.658;2023-01-04T20:01:44;3.00;;;1.10;;
25984;SDS011;40000;53.848;10.658;2023-01-04T20:11:50;2.78;;;1.00;;
25984;SDS011;40000;53.848;10.658;2023-01-04T20:16:52;3.20;;;2.10;;
25984;SDS011;40000;53.848;10.658;2023-01-04T20:21:54;4.22;;;1.73;;
25984;SDS011;40000;53.848;10.658;2023-01-04T20:26:55;2.92;;;1.23;;
25984;SDS011;40000;53.848;10.658;2023-01-04T20:31:58;1.60;;;0.95;;
25984;SDS011;40000;53.848;10.658;2023-01-04T20:36:59;3.30;;;1.45;;
25984;SDS011;40000;53.848;10.658;2023-01-04T20:42:01;3.53;;;2.08;;
25984;SDS011;40000;53.848;10.658;2023-01-04T20:47:21;3.97;;;1.40;;
25984;SDS011;40000;53.848;10.658;2023-01-04T20:52:23;2.38;;;1.30;;
25984;SDS011;40000;53.848;10.658;2023-01-04T20:57:25;2.75;;;1.65;;
25984;SDS011;40000;53.848;10.658;2023-01-04T21:02:26;5.10;;;2.60;;
25984;SDS011;40000;53.848;10.658;2023-01-04T21:12:30;4.45;;;1.70;;
25984;SDS011;40000;53.848;10.658;2023-01-04T21:17:31;2.83;;;2.38;;
25984;SDS011;40000;53.848;10.658;2023-01-04T21:27:34;45.53;;;18.55;;
25984;SDS011;40000;53.848;10.658;2023-01-04T21:37:38;26.88;;;9.38;;
25984;SDS011;40000;53.848;10.658;2023-01-04T21:42:40;24.10;;;9.70;;
25984;SDS011;40000;53.848;10.658;2023-01-04T21:52:44;21.70;;;7.47;;
25984;SDS011;40000;53.848;10.658;2023-01-04T21:57:48;25.33;;;6.85;;
25984;SDS011;40000;53.848;10.658;2023-01-04T22:02:49;23.77;;;6.35;;
25984;SDS011;40000;53.848;10.658;2023-01-04T22:07:52;18.33;;;5.38;;
25984;SDS011;40000;53.848;10.658;2023-01-04T22:12:55;11.70;;;4.43;;
25984;SDS011;40000;53.848;10.658;2023-01-04T22:17:56;18.58;;;5.47;;
25984;SDS011;40000;53.848;10.658;2023-01-04T22:22:59;14.60;;;3.67;;
25984;SDS011;40000;53.848;10.658;2023-01-04T22:28:00;16.65;;;4.75;;
25984;SDS011;40000;53.848;10.658;2023-01-04T22:33:01;10.70;;;2.92;;
25984;SDS011;40000;53.848;10.658;2023-01-04T22:43:04;8.32;;;2.13;;
25984;SDS011;40000;53.848;10.658;2023-01-04T22:48:05;7.32;;;2.08;;
25984;SDS011;40000;53.848;10.658;2023-01-04T22:53:08;6.20;;;1.80;;
25984;SDS011;40000;53.848;10.658;2023-01-04T22:58:09;6.13;;;2.17;;
25984;SDS011;40000;53.848;10.658;2023-01-04T23:08:11;4.60;;;1.35;;
25984;SDS011;40000;53.848;10.658;2023-01-04T23:18:13;4.25;;;1.38;;
25984;SDS011;40000;53.848;10.658;2023-01-04T23:23:15;3.33;;;1.20;;
25984;SDS011;40000;53.848;10.658;2023-01-04T23:28:17;4.97;;;1.38;;
25984;SDS011;40000;53.848;10.658;2023-01-04T23:33:19;3.55;;;1.10;;
25984;SDS011;40000;53.848;10.658;2023-01-04T23:43:21;3.55;;;0.70;;
25984;SDS011;40000;53.848;10.658;2023-01-04T23:48:24;2.58;;;0.82;;
25984;SDS011;40000;53.848;10.658;2023-01-04T23:58:28;3.22;;;0.93;;
